createdAt,value
2023-06-04T00:00:34.006Z,21.06
2023-06-04T00:03:01.761Z,21.12
2023-06-04T00:05:29.477Z,21.20
2023-06-04T00:07:57.168Z,21.14
2023-06-04T00:10:24.773Z,21.99
2023-06-04T00:12:52.440Z,21.73
2023-06-04T00:15:20.092Z,22.26
2023-06-04T00:17:49.206Z,22.30
2023-06-04T00:20:16.882Z,22.12
2023-06-04T00:22:44.663Z,21.94
2023-06-04T00:25:12.344Z,21.94
2023-06-04T00:27:40.027Z,21.56
2023-06-04T00:30:09.483Z,21.77
2023-06-04T00:32:38.022Z,21.38
2023-06-04T00:35:07.944Z,21.61
2023-06-04T00:37:35.620Z,21.56
2023-06-04T00:40:03.305Z,21.44
2023-06-04T00:42:31.015Z,21.34
2023-06-04T00:44:59.304Z,21.22
2023-06-04T00:47:27.322Z,21.15
2023-06-04T00:49:55.908Z,21.09
2023-06-04T00:52:24.930Z,21.05
2023-06-04T00:54:52.974Z,21.08
2023-06-04T00:57:20.652Z,20.68
2023-06-04T00:59:48.359Z,20.84
2023-06-04T01:02:17.252Z,20.90
2023-06-04T01:04:46.836Z,20.76
2023-06-04T01:07:15.584Z,20.99
2023-06-04T01:09:44.679Z,20.78
2023-06-04T01:12:12.692Z,20.52
2023-06-04T01:14:40.407Z,20.97
2023-06-04T01:17:09.707Z,20.76
2023-06-04T01:20:00.900Z,20.33
2023-06-04T01:22:32.498Z,20.31
2023-06-04T01:25:03.536Z,20.65
2023-06-04T01:27:31.300Z,20.77
2023-06-04T01:29:58.994Z,20.66
2023-06-04T01:32:26.717Z,20.90
2023-06-04T01:34:54.462Z,20.37
2023-06-04T01:37:22.194Z,20.07
2023-06-04T01:39:49.885Z,20.62
2023-06-04T01:42:18.985Z,20.35
2023-06-04T01:44:46.974Z,19.75
2023-06-04T01:47:15.743Z,20.19
2023-06-04T01:49:43.506Z,20.24
2023-06-04T01:52:11.965Z,20.28
2023-06-04T01:54:40.130Z,20.20
2023-06-04T01:57:09.004Z,20.01
2023-06-04T01:59:39.821Z,19.92
2023-06-04T02:02:07.748Z,20.10
2023-06-04T02:04:37.589Z,20.26
2023-06-04T02:07:05.536Z,20.12
2023-06-04T02:09:33.219Z,20.07
2023-06-04T02:12:00.892Z,20.09
2023-06-04T02:14:29.159Z,19.94
2023-06-04T02:16:59.238Z,20.17
2023-06-04T02:19:27.981Z,19.90
2023-06-04T02:21:55.671Z,19.61
2023-06-04T02:24:26.538Z,19.68
2023-06-04T02:26:54.216Z,19.60
2023-06-04T02:29:22.557Z,19.69
2023-06-04T02:31:50.339Z,19.48
2023-06-04T02:34:19.848Z,19.45
2023-06-04T02:36:49.256Z,19.49
2023-06-04T02:39:16.998Z,19.46
2023-06-04T02:41:44.644Z,19.53
2023-06-04T02:44:12.366Z,19.57
2023-06-04T02:46:40.144Z,19.64
2023-06-04T02:49:07.935Z,19.49
2023-06-04T02:51:37.471Z,19.36
2023-06-04T02:54:05.167Z,19.57
2023-06-04T02:56:32.820Z,19.33
2023-06-04T02:59:00.601Z,19.13
2023-06-04T03:01:28.738Z,19.50
2023-06-04T03:03:56.745Z,19.47
2023-06-04T03:06:25.137Z,19.34
2023-06-04T03:08:54.344Z,19.31
2023-06-04T03:11:22.483Z,19.29
2023-06-04T03:13:50.191Z,19.39
2023-06-04T03:16:17.965Z,18.91
2023-06-04T03:18:46.117Z,19.31
2023-06-04T03:21:14.319Z,19.54
2023-06-04T03:23:42.334Z,19.73
2023-06-04T03:26:13.930Z,19.71
2023-06-04T03:28:42.370Z,19.57
2023-06-04T03:31:11.815Z,19.86
2023-06-04T03:33:39.583Z,19.62
2023-06-04T03:36:07.347Z,19.73
2023-06-04T03:38:36.750Z,19.96
2023-06-04T03:41:05.344Z,19.15
2023-06-04T03:43:34.761Z,19.99
2023-06-04T03:46:05.929Z,20.12
2023-06-04T03:48:33.930Z,19.91
2023-06-04T03:51:01.976Z,19.98
2023-06-04T03:53:29.940Z,20.11
2023-06-04T03:55:57.822Z,20.41
2023-06-04T03:58:25.828Z,20.67
2023-06-04T04:00:55.362Z,20.60
2023-06-04T04:03:24.792Z,20.46
2023-06-04T04:05:53.274Z,20.27
2023-06-04T04:08:22.386Z,20.30
2023-06-04T04:10:50.639Z,20.27
2023-06-04T04:13:18.346Z,20.32
2023-06-04T04:15:46.389Z,19.84
2023-06-04T04:18:18.047Z,20.18
2023-06-04T04:20:46.921Z,20.40
2023-06-04T04:23:14.965Z,20.54
2023-06-04T04:25:46.051Z,21.15
2023-06-04T04:28:14.695Z,20.59
2023-06-04T04:30:42.940Z,21.13
2023-06-04T04:33:11.922Z,21.66
2023-06-04T04:35:46.590Z,21.55
2023-06-04T04:38:18.229Z,21.78
2023-06-04T04:40:53.368Z,21.11
2023-06-04T04:43:30.151Z,21.18
2023-06-04T04:45:59.119Z,22.14
2023-06-04T04:48:27.014Z,22.26
2023-06-04T04:50:56.209Z,21.72
2023-06-04T04:53:24.032Z,21.77
2023-06-04T04:55:51.837Z,22.81
2023-06-04T04:58:19.618Z,22.45
2023-06-04T05:00:48.807Z,22.48
2023-06-04T05:03:16.704Z,23.26
2023-06-04T05:05:45.474Z,23.14
2023-06-04T05:08:15.902Z,23.46
2023-06-04T05:10:44.728Z,23.09
2023-06-04T05:13:12.497Z,23.14
2023-06-04T05:15:48.937Z,23.18
2023-06-04T05:18:21.519Z,24.10
2023-06-04T05:20:50.226Z,24.24
2023-06-04T05:23:19.724Z,23.17
2023-06-04T05:25:51.501Z,24.32
2023-06-04T05:28:21.575Z,24.31
2023-06-04T05:30:49.741Z,24.72
2023-06-04T05:33:19.774Z,24.64
2023-06-04T05:35:58.703Z,24.49
2023-06-04T05:38:32.002Z,25.31
2023-06-04T05:41:04.999Z,24.33
2023-06-04T05:43:36.031Z,24.61
2023-06-04T05:46:04.161Z,25.17
2023-06-04T05:48:31.855Z,25.62
2023-06-04T05:50:59.597Z,25.74
2023-06-04T05:53:27.369Z,26.02
2023-06-04T05:55:56.532Z,25.71
2023-06-04T05:58:24.353Z,26.04
2023-06-04T06:00:52.445Z,26.07
2023-06-04T06:03:21.454Z,25.71
2023-06-04T06:05:50.947Z,26.04
2023-06-04T06:08:18.728Z,26.40
2023-06-04T06:10:47.127Z,25.78
2023-06-04T06:13:16.308Z,26.79
2023-06-04T06:15:44.554Z,26.76
2023-06-04T06:18:12.397Z,25.77
2023-06-04T06:20:40.147Z,25.96
2023-06-04T06:23:08.293Z,27.56
2023-06-04T06:25:41.355Z,27.50
2023-06-04T06:28:16.454Z,28.63
2023-06-04T06:30:46.253Z,27.86
2023-06-04T06:33:14.077Z,28.39
2023-06-04T06:35:41.840Z,27.77
2023-06-04T06:38:09.620Z,27.60
2023-06-04T06:40:37.323Z,28.02
2023-06-04T06:43:05.158Z,28.49
2023-06-04T06:45:35.971Z,28.01
2023-06-04T06:48:06.176Z,28.13
2023-06-04T06:50:34.475Z,28.34
2023-06-04T06:53:02.187Z,28.80
2023-06-04T06:55:29.857Z,29.02
2023-06-04T06:57:57.776Z,29.62
2023-06-04T07:00:26.143Z,30.13
2023-06-04T07:02:55.344Z,30.02
2023-06-04T07:05:23.203Z,29.13
2023-06-04T07:07:50.820Z,28.98
2023-06-04T07:10:18.531Z,29.57
2023-06-04T07:12:46.189Z,30.72
2023-06-04T07:15:13.922Z,28.36
2023-06-04T07:17:41.622Z,29.81
2023-06-04T07:20:11.059Z,30.71
2023-06-04T07:22:38.768Z,30.12
2023-06-04T07:25:07.650Z,29.89
2023-06-04T07:27:35.669Z,30.33
2023-06-04T07:30:03.383Z,29.58
2023-06-04T07:32:31.175Z,30.30
2023-06-04T07:34:58.971Z,29.70
2023-06-04T07:37:28.047Z,30.48
2023-06-04T07:39:55.911Z,30.75
2023-06-04T07:42:23.643Z,29.54
2023-06-04T07:44:51.357Z,30.08
2023-06-04T07:47:19.093Z,29.65
2023-06-04T07:50:01.246Z,29.76
2023-06-04T07:52:31.445Z,30.26
2023-06-04T07:54:59.165Z,31.09
2023-06-04T07:57:27.036Z,30.83
2023-06-04T07:59:54.703Z,29.07
2023-06-04T08:02:22.533Z,30.30
2023-06-04T08:04:51.039Z,31.54
2023-06-04T08:07:18.783Z,30.36
2023-06-04T08:09:47.860Z,30.36
2023-06-04T08:12:17.133Z,29.50
2023-06-04T08:14:44.884Z,30.25
2023-06-04T08:17:12.495Z,30.96
2023-06-04T08:19:40.300Z,31.35
2023-06-04T08:22:08.011Z,30.77
2023-06-04T08:24:38.681Z,30.33
2023-06-04T08:27:09.466Z,31.48
2023-06-04T08:29:38.155Z,30.93
2023-06-04T08:32:06.749Z,30.54
2023-06-04T08:34:34.489Z,29.35
2023-06-04T08:37:02.437Z,31.47
2023-06-04T08:39:30.127Z,32.74
2023-06-04T08:42:02.279Z,31.82
2023-06-04T08:44:31.685Z,32.36
2023-06-04T08:47:04.905Z,31.37
2023-06-04T08:49:32.707Z,31.75
2023-06-04T08:52:00.411Z,31.22
2023-06-04T08:54:28.064Z,30.52
2023-06-04T08:56:58.182Z,31.53
2023-06-04T08:59:26.338Z,31.06
2023-06-04T09:01:56.034Z,30.89
2023-06-04T09:04:23.770Z,31.65
2023-06-04T09:06:51.421Z,32.91
2023-06-04T09:09:19.138Z,32.03
2023-06-04T09:11:48.721Z,32.20
2023-06-04T09:14:18.434Z,32.90
2023-06-04T09:16:46.726Z,33.34
2023-06-04T09:19:15.905Z,30.35
2023-06-04T09:21:53.106Z,31.62
2023-06-04T09:24:21.903Z,31.31
2023-06-04T09:26:49.948Z,30.70
2023-06-04T09:29:17.702Z,31.95
2023-06-04T09:31:48.098Z,32.98
2023-06-04T09:34:17.291Z,33.00
2023-06-04T09:36:45.222Z,32.24
2023-06-04T09:39:19.168Z,32.34
2023-06-04T09:41:46.921Z,31.60
2023-06-04T09:44:14.579Z,30.02
2023-06-04T09:46:42.280Z,30.32
2023-06-04T09:49:10.075Z,33.15
2023-06-04T09:51:48.555Z,33.93
2023-06-04T09:54:16.309Z,33.81
2023-06-04T09:56:44.065Z,33.50
2023-06-04T09:59:12.055Z,32.40
2023-06-04T10:01:40.980Z,33.40
2023-06-04T10:04:09.000Z,32.92
2023-06-04T10:06:37.398Z,32.77
2023-06-04T10:09:08.632Z,32.76
2023-06-04T10:11:36.735Z,33.45
2023-06-04T10:14:05.282Z,33.17
2023-06-04T10:16:34.914Z,33.50
2023-06-04T10:19:03.136Z,32.60
2023-06-04T10:21:32.683Z,34.03
2023-06-04T10:24:00.816Z,33.65
2023-06-04T10:26:31.049Z,32.13
2023-06-04T10:28:58.798Z,33.27
2023-06-04T10:31:26.708Z,31.66
2023-06-04T10:33:55.880Z,33.48
2023-06-04T10:36:24.004Z,34.43
2023-06-04T10:38:55.018Z,33.75
2023-06-04T10:41:24.015Z,32.11
2023-06-04T10:43:53.301Z,32.67
2023-06-04T10:46:21.461Z,32.05
2023-06-04T10:48:49.970Z,32.49
2023-06-04T10:51:18.139Z,32.06
2023-06-04T10:53:46.148Z,33.35
2023-06-04T10:56:13.877Z,33.31
2023-06-04T10:58:41.525Z,32.54
2023-06-04T11:01:10.902Z,34.14
2023-06-04T11:03:39.027Z,33.64
2023-06-04T11:06:17.013Z,33.22
2023-06-04T11:08:44.748Z,34.07
2023-06-04T11:11:13.206Z,33.98
2023-06-04T11:13:40.939Z,34.61
2023-06-04T11:16:18.459Z,32.71
2023-06-04T11:18:46.314Z,33.56
2023-06-04T11:21:16.092Z,33.89
2023-06-04T11:23:44.416Z,33.10
2023-06-04T11:26:12.153Z,32.88
2023-06-04T11:28:39.869Z,33.05
2023-06-04T11:31:09.664Z,33.36
2023-06-04T11:33:45.672Z,33.15
2023-06-04T11:36:13.376Z,34.43
2023-06-04T11:38:41.058Z,35.92
2023-06-04T11:41:08.919Z,37.40
2023-06-04T11:43:40.190Z,38.92
2023-06-04T11:46:11.290Z,38.57
2023-06-04T11:48:39.862Z,38.87
2023-06-04T11:51:10.725Z,40.41
2023-06-04T11:53:38.781Z,40.24
2023-06-04T11:56:06.492Z,43.08
2023-06-04T11:58:34.414Z,45.04
2023-06-04T12:01:02.085Z,42.81
2023-06-04T12:03:35.727Z,41.97
2023-06-04T12:06:12.704Z,41.78
2023-06-04T12:08:50.179Z,42.10
2023-06-04T12:11:28.911Z,47.38
2023-06-04T12:13:57.093Z,41.56
2023-06-04T12:16:24.841Z,42.36
2023-06-04T12:18:52.760Z,43.10
2023-06-04T12:21:23.887Z,43.64
2023-06-04T12:23:51.725Z,45.57
2023-06-04T12:26:29.595Z,47.03
2023-06-04T12:29:01.249Z,46.39
2023-06-04T12:31:32.945Z,47.03
2023-06-04T12:34:01.795Z,47.46
2023-06-04T12:36:30.843Z,47.22
2023-06-04T12:39:00.265Z,47.10
2023-06-04T12:41:28.069Z,46.92
2023-06-04T12:43:55.959Z,47.32
2023-06-04T12:46:23.998Z,46.00
2023-06-04T12:48:51.920Z,46.67
2023-06-04T12:51:19.687Z,46.00
2023-06-04T12:53:49.290Z,45.69
2023-06-04T12:56:17.222Z,48.52
2023-06-04T12:58:44.901Z,48.97
2023-06-04T13:01:12.642Z,50.34
2023-06-04T13:03:41.849Z,48.11
2023-06-04T13:06:09.690Z,50.80
2023-06-04T13:08:37.930Z,51.39
2023-06-04T13:11:07.624Z,52.46
2023-06-04T13:13:35.467Z,51.25
2023-06-04T13:16:03.242Z,50.88
2023-06-04T13:18:30.947Z,47.95
2023-06-04T13:20:58.646Z,47.18
2023-06-04T13:23:34.278Z,50.97
2023-06-04T13:26:06.938Z,48.44
2023-06-04T13:28:34.658Z,47.79
2023-06-04T13:31:02.652Z,50.51
2023-06-04T13:33:30.370Z,49.34
2023-06-04T13:35:58.033Z,47.95
2023-06-04T13:38:25.718Z,50.82
2023-06-04T13:40:54.205Z,48.75
2023-06-04T13:43:23.235Z,48.48
2023-06-04T13:45:50.931Z,49.19
2023-06-04T13:48:18.658Z,48.05
2023-06-04T13:50:46.590Z,50.16
2023-06-04T13:53:14.431Z,48.48
2023-06-04T13:55:42.221Z,48.77
2023-06-04T13:58:09.906Z,49.46
2023-06-04T14:00:38.927Z,47.57
2023-06-04T14:03:06.758Z,49.12
2023-06-04T14:05:34.543Z,47.04
2023-06-04T14:08:03.894Z,52.31
2023-06-04T14:10:31.611Z,52.64
2023-06-04T14:12:59.273Z,51.58
2023-06-04T14:15:27.294Z,51.46
2023-06-04T14:17:56.483Z,49.60
2023-06-04T14:20:24.203Z,49.95
2023-06-04T14:22:51.955Z,50.90
2023-06-04T14:25:19.639Z,49.99
2023-06-04T14:27:47.337Z,48.55
2023-06-04T14:30:15.316Z,47.80
2023-06-04T14:32:43.411Z,49.69
2023-06-04T14:35:13.690Z,48.17
2023-06-04T14:37:41.373Z,48.74
2023-06-04T14:40:09.450Z,47.89
2023-06-04T14:42:37.114Z,49.22
2023-06-04T14:45:05.033Z,51.06
2023-06-04T14:47:32.751Z,51.21
2023-06-04T14:50:00.554Z,53.03
2023-06-04T14:52:29.996Z,52.21
2023-06-04T14:54:57.669Z,50.97
2023-06-04T14:57:25.347Z,52.14
2023-06-04T14:59:53.022Z,52.75
2023-06-04T15:02:21.736Z,50.71
2023-06-04T15:04:49.532Z,52.17
2023-06-04T15:07:17.192Z,51.82
2023-06-04T15:09:48.788Z,50.33
2023-06-04T15:12:17.959Z,50.05
2023-06-04T15:14:45.698Z,48.84
2023-06-04T15:17:13.413Z,48.81
2023-06-04T15:19:41.619Z,51.61
2023-06-04T15:22:09.489Z,50.88
2023-06-04T15:24:37.180Z,50.29
2023-06-04T15:27:06.595Z,49.85
2023-06-04T15:29:34.270Z,47.84
2023-06-04T15:32:02.038Z,50.32
2023-06-04T15:34:29.737Z,50.37
2023-06-04T15:36:57.446Z,50.27
2023-06-04T15:39:25.240Z,47.99
2023-06-04T15:41:52.911Z,46.28
2023-06-04T15:44:21.926Z,46.44
2023-06-04T15:46:49.612Z,46.08
2023-06-04T15:49:17.919Z,42.34
2023-06-04T15:51:45.649Z,44.91
2023-06-04T15:54:13.294Z,45.55
2023-06-04T15:56:40.984Z,44.54
2023-06-04T15:59:08.783Z,43.57
2023-06-04T16:01:38.239Z,40.86
2023-06-04T16:04:06.049Z,40.26
2023-06-04T16:06:33.797Z,40.74
2023-06-04T16:09:01.493Z,41.22
2023-06-04T16:11:29.316Z,40.43
2023-06-04T16:13:57.010Z,40.80
2023-06-04T16:16:24.741Z,41.08
2023-06-04T16:18:53.828Z,41.32
2023-06-04T16:21:21.678Z,40.11
2023-06-04T16:23:49.371Z,43.13
2023-06-04T16:26:17.054Z,44.23
2023-06-04T16:28:44.756Z,43.15
2023-06-04T16:31:12.504Z,44.14
2023-06-04T16:33:40.437Z,45.15
2023-06-04T16:36:09.731Z,47.34
2023-06-04T16:38:37.540Z,48.67
2023-06-04T16:41:05.789Z,48.56
2023-06-04T16:43:33.512Z,47.54
2023-06-04T16:46:01.222Z,46.47
2023-06-04T16:48:28.855Z,47.03
2023-06-04T16:50:56.685Z,46.49
2023-06-04T16:53:25.762Z,47.06
2023-06-04T16:55:53.400Z,47.75
2023-06-04T16:58:21.101Z,48.48
2023-06-04T17:00:49.357Z,47.95
2023-06-04T17:03:17.337Z,47.07
2023-06-04T17:05:45.257Z,47.78
2023-06-04T17:08:12.908Z,48.64
2023-06-04T17:10:41.954Z,49.16
2023-06-04T17:13:09.665Z,49.53
2023-06-04T17:15:37.535Z,49.00
2023-06-04T17:18:11.378Z,49.65
2023-06-04T17:20:39.494Z,49.39
2023-06-04T17:23:19.891Z,47.62
2023-06-04T17:25:49.020Z,47.55
2023-06-04T17:28:17.145Z,48.83
2023-06-04T17:30:44.822Z,46.03
2023-06-04T17:33:12.543Z,44.13
2023-06-04T17:35:40.553Z,44.03
2023-06-04T17:38:08.270Z,43.61
2023-06-04T17:40:36.092Z,42.77
2023-06-04T17:43:05.133Z,43.32
2023-06-04T17:45:33.246Z,45.54
2023-06-04T17:48:01.088Z,44.14
2023-06-04T17:50:28.832Z,43.91
2023-06-04T17:52:58.710Z,45.13
2023-06-04T17:55:27.763Z,44.51
2023-06-04T17:57:56.582Z,41.35
2023-06-04T18:00:25.755Z,42.54
2023-06-04T18:02:53.450Z,44.19
2023-06-04T18:05:21.170Z,44.04
2023-06-04T18:07:48.809Z,43.57
2023-06-04T18:10:16.469Z,43.10
2023-06-04T18:12:45.953Z,43.50
2023-06-04T18:15:14.684Z,43.98
2023-06-04T18:17:43.749Z,42.62
2023-06-04T18:20:11.902Z,42.98
2023-06-04T18:22:39.651Z,43.38
2023-06-04T18:25:08.812Z,43.00
2023-06-04T18:27:36.797Z,42.46
2023-06-04T18:30:04.549Z,41.95
2023-06-04T18:32:32.253Z,40.55
2023-06-04T18:35:01.282Z,38.67
2023-06-04T18:37:28.946Z,37.17
2023-06-04T18:39:56.966Z,36.98
2023-06-04T18:42:30.841Z,36.26
2023-06-04T18:45:00.487Z,35.30
2023-06-04T18:47:28.574Z,34.77
2023-06-04T18:49:57.284Z,34.56
2023-06-04T18:52:26.387Z,34.22
2023-06-04T18:54:54.082Z,34.16
2023-06-04T18:57:21.767Z,33.98
2023-06-04T18:59:49.441Z,33.51
2023-06-04T19:02:17.187Z,32.50
2023-06-04T19:04:46.133Z,33.33
2023-06-04T19:07:13.750Z,33.32
2023-06-04T19:09:42.859Z,33.04
2023-06-04T19:12:10.654Z,32.86
2023-06-04T19:14:38.501Z,32.72
2023-06-04T19:17:06.398Z,32.50
2023-06-04T19:19:34.121Z,32.12
2023-06-04T19:22:01.763Z,31.26
2023-06-04T19:24:29.457Z,31.46
2023-06-04T19:26:58.468Z,31.38
2023-06-04T19:29:26.125Z,31.35
2023-06-04T19:31:53.820Z,30.86
2023-06-04T19:34:21.595Z,30.86
2023-06-04T19:36:49.432Z,30.24
2023-06-04T19:39:17.067Z,30.50
2023-06-04T19:41:44.791Z,30.33
2023-06-04T19:44:13.831Z,30.19
2023-06-04T19:46:41.546Z,29.88
2023-06-04T19:49:09.429Z,29.81
2023-06-04T19:51:37.445Z,29.83
2023-06-04T19:54:05.207Z,29.74
2023-06-04T19:56:32.861Z,29.59
2023-06-04T19:59:01.350Z,29.47
2023-06-04T20:01:30.550Z,29.52
2023-06-04T20:03:58.422Z,29.33
2023-06-04T20:06:26.359Z,29.22
2023-06-04T20:08:54.085Z,29.09
2023-06-04T20:11:22.947Z,28.96
2023-06-04T20:13:50.642Z,28.80
2023-06-04T20:16:18.452Z,28.72
2023-06-04T20:18:47.796Z,28.74
2023-06-04T20:21:15.526Z,28.42
2023-06-04T20:23:43.333Z,28.17
2023-06-04T20:26:11.060Z,28.26
2023-06-04T20:28:38.914Z,28.47
2023-06-04T20:31:06.699Z,27.74
2023-06-04T20:33:34.611Z,27.83
2023-06-04T20:36:03.688Z,28.26
2023-06-04T20:38:31.753Z,28.06
2023-06-04T20:40:59.398Z,27.99
2023-06-04T20:43:27.071Z,28.08
2023-06-04T20:45:57.275Z,27.83
2023-06-04T20:48:25.146Z,28.07
2023-06-04T20:50:52.870Z,27.98
2023-06-04T20:53:21.886Z,27.91
2023-06-04T20:55:49.528Z,27.11
2023-06-04T20:58:18.602Z,27.40
2023-06-04T21:00:47.031Z,27.33
2023-06-04T21:03:15.135Z,27.82
2023-06-04T21:05:42.940Z,27.18
2023-06-04T21:08:11.126Z,27.71
2023-06-04T21:10:40.622Z,27.80
2023-06-04T21:13:08.308Z,27.74
2023-06-04T21:15:36.038Z,27.57
2023-06-04T21:18:03.850Z,27.48
2023-06-04T21:20:31.578Z,27.11
2023-06-04T21:22:59.236Z,26.92
2023-06-04T21:25:26.912Z,27.12
2023-06-04T21:27:55.999Z,26.75
2023-06-04T21:30:24.002Z,26.82
2023-06-04T21:32:51.722Z,26.65
2023-06-04T21:35:19.537Z,26.88
2023-06-04T21:37:47.221Z,26.57
2023-06-04T21:40:14.956Z,26.61
2023-06-04T21:42:42.681Z,26.72
2023-06-04T21:45:12.854Z,26.72
2023-06-04T21:47:41.132Z,26.56
2023-06-04T21:50:09.321Z,26.31
2023-06-04T21:52:36.954Z,26.09
2023-06-04T21:55:04.845Z,25.53
2023-06-04T21:57:32.502Z,25.48
2023-06-04T22:00:00.320Z,26.06
2023-06-04T22:02:29.514Z,26.04
2023-06-04T22:04:57.238Z,25.53
2023-06-04T22:07:24.960Z,25.74
2023-06-04T22:09:52.637Z,25.71
2023-06-04T22:12:22.279Z,25.81
2023-06-04T22:14:50.226Z,26.28
2023-06-04T22:17:17.858Z,26.81
2023-06-04T22:19:46.881Z,26.66
2023-06-04T22:22:14.557Z,26.44
2023-06-04T22:24:42.208Z,26.44
2023-06-04T22:27:09.871Z,26.35
2023-06-04T22:29:37.530Z,25.98
2023-06-04T22:32:05.312Z,25.61
2023-06-04T22:34:33.104Z,25.25
2023-06-04T22:37:02.146Z,25.36
2023-06-04T22:39:29.872Z,25.57
2023-06-04T22:41:57.591Z,25.28
2023-06-04T22:44:25.566Z,25.13
2023-06-04T22:46:53.374Z,25.11
2023-06-04T22:49:21.105Z,24.94
2023-06-04T22:51:48.828Z,25.12
2023-06-04T22:54:17.870Z,24.78
2023-06-04T22:56:45.606Z,24.89
2023-06-04T22:59:13.318Z,24.74
2023-06-04T23:01:41.183Z,24.20
2023-06-04T23:04:08.934Z,24.94
2023-06-04T23:06:38.770Z,24.74
2023-06-04T23:09:06.486Z,24.85
2023-06-04T23:11:35.632Z,24.40
2023-06-04T23:14:03.511Z,24.32
2023-06-04T23:16:31.267Z,24.49
2023-06-04T23:18:58.981Z,24.35
2023-06-04T23:21:26.623Z,24.25
2023-06-04T23:23:54.377Z,24.23
2023-06-04T23:26:22.326Z,24.17
2023-06-04T23:28:51.460Z,23.76
2023-06-04T23:31:19.213Z,24.26
2023-06-04T23:33:46.967Z,24.32
2023-06-04T23:36:14.721Z,24.16
2023-06-04T23:38:42.448Z,23.79
2023-06-04T23:41:10.356Z,23.85
2023-06-04T23:43:38.258Z,23.75
2023-06-04T23:46:07.327Z,23.85
2023-06-04T23:48:35.059Z,23.82
2023-06-04T23:51:02.692Z,23.45
2023-06-04T23:53:30.793Z,23.68
2023-06-04T23:55:58.416Z,23.51
2023-06-04T23:58:26.145Z,23.93
